FIN6Y EFHK-LIMC
Flight info
| Callsign | FIN6Y |
|---|---|
| Flight time | 2h 40m |
| Altitude | 36000 |
| Route | VALOX Y117 ROSAX DCT ANFEV DCT PENOR DCT SUBIX DCT LUROS DCT MAREM DCT RUDAP DCT EBEDA DCT BADVI DCT BERAS DCT OLPIX/N0437F370 DCT EKPEB DCT RENTA DCT ATPED DCT LUSIL DCT EVRIP |
| Aircraft | A320/M-SDE3FGHIRWY/LB1 |
Departure
| Time | 2026-04-26 16:14 |
|---|---|
| Airport | Helsinki Vantaa Airport (EFHK) |
Arrival
| Time | 2026-04-26 18:54 |
|---|---|
| Airport | Milan Malpensa International Airport (LIMC) |
| Time | Latitude | Longitude | Altitude | Speed | Heading |
|---|---|---|---|---|---|
| 2026-04-26 15:42 | 60.32007 | 24.96844 | 167 ft | 0 kts | 192° |
| 2026-04-26 16:02 | 60.32013 | 24.96847 | 166 ft | 2 kts | 190° |
| 2026-04-26 16:03 | 60.32039 | 24.96850 | 167 ft | 2 kts | 169° |
| 2026-04-26 16:03 | 60.32041 | 24.96849 | 166 ft | 0 kts | 169° |
| 2026-04-26 16:03 | 60.32043 | 24.96848 | 166 ft | 2 kts | 169° |
| 2026-04-26 16:03 | 60.32046 | 24.96847 | 166 ft | 0 kts | 169° |
| 2026-04-26 16:04 | 60.32052 | 24.96844 | 166 ft | 2 kts | 156° |
| 2026-04-26 16:04 | 60.32065 | 24.96823 | 166 ft | 2 kts | 113° |
| 2026-04-26 16:04 | 60.32070 | 24.96791 | 166 ft | 2 kts | 74° |
| 2026-04-26 16:04 | 60.32067 | 24.96778 | 166 ft | 0 kts | 56° |
| 2026-04-26 16:06 | 60.32068 | 24.96780 | 166 ft | 1 kts | 56° |
| 2026-04-26 16:07 | 60.32081 | 24.96819 | 166 ft | 6 kts | 56° |
| 2026-04-26 16:07 | 60.32118 | 24.96901 | 166 ft | 8 kts | 41° |
| 2026-04-26 16:07 | 60.32146 | 24.96988 | 166 ft | 7 kts | 94° |
| 2026-04-26 16:07 | 60.32106 | 24.97054 | 166 ft | 11 kts | 153° |
| 2026-04-26 16:08 | 60.32008 | 24.97156 | 165 ft | 19 kts | 152° |
| 2026-04-26 16:08 | 60.31932 | 24.97235 | 163 ft | 19 kts | 153° |
| 2026-04-26 16:08 | 60.31780 | 24.97392 | 160 ft | 18 kts | 153° |
| 2026-04-26 16:08 | 60.31672 | 24.97502 | 159 ft | 17 kts | 153° |
| 2026-04-26 16:09 | 60.31559 | 24.97619 | 155 ft | 23 kts | 153° |
| 2026-04-26 16:09 | 60.31417 | 24.97765 | 156 ft | 22 kts | 152° |
| 2026-04-26 16:09 | 60.31290 | 24.97895 | 158 ft | 19 kts | 153° |
| 2026-04-26 16:09 | 60.31214 | 24.97974 | 158 ft | 17 kts | 153° |
| 2026-04-26 16:10 | 60.31114 | 24.98076 | 158 ft | 16 kts | 153° |
| 2026-04-26 16:10 | 60.31021 | 24.98172 | 158 ft | 14 kts | 153° |
| 2026-04-26 16:10 | 60.30937 | 24.98239 | 158 ft | 12 kts | 157° |
| 2026-04-26 16:10 | 60.30832 | 24.98330 | 159 ft | 24 kts | 158° |
| 2026-04-26 16:11 | 60.30721 | 24.98428 | 158 ft | 8 kts | 156° |
| 2026-04-26 16:11 | 60.30669 | 24.98497 | 157 ft | 9 kts | 128° |
| 2026-04-26 16:11 | 60.30660 | 24.98565 | 157 ft | 0 kts | 89° |
| 2026-04-26 16:12 | 60.30661 | 24.98586 | 157 ft | 7 kts | 82° |
| 2026-04-26 16:12 | 60.30679 | 24.98685 | 156 ft | 7 kts | 58° |
| 2026-04-26 16:12 | 60.30764 | 24.98773 | 158 ft | 11 kts | 336° |
| 2026-04-26 16:13 | 60.30771 | 24.98765 | 158 ft | 0 kts | 333° |
| 2026-04-26 16:13 | 60.30777 | 24.98760 | 158 ft | 8 kts | 333° |
| 2026-04-26 16:13 | 60.31068 | 24.98463 | 156 ft | 82 kts | 333° |
| 2026-04-26 16:13 | 60.31751 | 24.97756 | 153 ft | 137 kts | 333° |
| 2026-04-26 16:14 | 60.32680 | 24.96822 | 525 ft | 152 kts | 333° |
| 2026-04-26 16:14 | 60.33592 | 24.95765 | 1330 ft | 152 kts | 327° |
| 2026-04-26 16:14 | 60.35014 | 24.91985 | 2135 ft | 199 kts | 296° |
| 2026-04-26 16:15 | 60.35275 | 24.89015 | 2494 ft | 233 kts | 276° |
| 2026-04-26 16:15 | 60.34906 | 24.85637 | 3172 ft | 258 kts | 252° |
| 2026-04-26 16:15 | 60.34043 | 24.82361 | 3802 ft | 267 kts | 248° |
| 2026-04-26 16:16 | 60.32292 | 24.75837 | 4004 ft | 266 kts | 248° |
| 2026-04-26 16:16 | 60.31411 | 24.72547 | 4006 ft | 266 kts | 249° |
| 2026-04-26 16:16 | 60.30413 | 24.69358 | 4010 ft | 272 kts | 236° |
| 2026-04-26 16:16 | 60.28975 | 24.66808 | 4010 ft | 281 kts | 217° |
| 2026-04-26 16:17 | 60.27168 | 24.65220 | 4011 ft | 288 kts | 197° |
| 2026-04-26 16:17 | 60.25192 | 24.64447 | 4013 ft | 290 kts | 193° |
| 2026-04-26 16:17 | 60.23203 | 24.63700 | 4011 ft | 290 kts | 194° |
| 2026-04-26 16:17 | 60.21205 | 24.62935 | 4277 ft | 297 kts | 194° |
| 2026-04-26 16:18 | 60.19180 | 24.62155 | 5290 ft | 296 kts | 194° |
| 2026-04-26 16:18 | 60.15102 | 24.60589 | 7078 ft | 302 kts | 194° |
| 2026-04-26 16:19 | 60.10958 | 24.58995 | 8803 ft | 307 kts | 195° |
| 2026-04-26 16:19 | 60.08848 | 24.58153 | 9656 ft | 310 kts | 198° |
| 2026-04-26 16:19 | 60.04781 | 24.54632 | 10434 ft | 337 kts | 219° |
| 2026-04-26 16:20 | 60.02794 | 24.51974 | 10929 ft | 348 kts | 218° |
| 2026-04-26 16:20 | 59.98680 | 24.46592 | 12392 ft | 358 kts | 217° |
| 2026-04-26 16:20 | 59.96570 | 24.43870 | 13124 ft | 363 kts | 217° |
| 2026-04-26 16:21 | 59.94436 | 24.41127 | 13795 ft | 368 kts | 217° |
| 2026-04-26 16:21 | 59.92260 | 24.38331 | 14412 ft | 372 kts | 217° |
| 2026-04-26 16:21 | 59.90076 | 24.35526 | 15051 ft | 376 kts | 217° |
| 2026-04-26 16:21 | 59.87868 | 24.32696 | 15684 ft | 380 kts | 217° |
| 2026-04-26 16:22 | 59.85636 | 24.29835 | 16334 ft | 383 kts | 217° |
| 2026-04-26 16:22 | 59.83380 | 24.26943 | 16965 ft | 387 kts | 217° |
| 2026-04-26 16:22 | 59.81109 | 24.24032 | 17592 ft | 390 kts | 217° |
| 2026-04-26 16:22 | 59.78816 | 24.21096 | 18209 ft | 394 kts | 217° |
| 2026-04-26 16:23 | 59.76496 | 24.18134 | 18731 ft | 398 kts | 217° |
| 2026-04-26 16:23 | 59.74157 | 24.15152 | 19265 ft | 402 kts | 218° |
| 2026-04-26 16:23 | 59.71815 | 24.12113 | 19792 ft | 405 kts | 219° |
| 2026-04-26 16:23 | 59.69494 | 24.08922 | 20303 ft | 407 kts | 221° |
| 2026-04-26 16:24 | 59.67182 | 24.05619 | 20786 ft | 412 kts | 223° |
| 2026-04-26 16:24 | 59.64863 | 24.02256 | 21304 ft | 416 kts | 223° |
| 2026-04-26 16:24 | 59.62519 | 23.98866 | 21822 ft | 420 kts | 223° |
| 2026-04-26 16:24 | 59.60139 | 23.95458 | 22336 ft | 424 kts | 223° |
| 2026-04-26 16:25 | 59.57736 | 23.92051 | 22845 ft | 428 kts | 223° |
| 2026-04-26 16:25 | 59.55303 | 23.88621 | 23333 ft | 432 kts | 223° |
| 2026-04-26 16:25 | 59.52845 | 23.85177 | 23745 ft | 436 kts | 223° |
| 2026-04-26 16:25 | 59.50361 | 23.81719 | 24147 ft | 439 kts | 223° |
| 2026-04-26 16:26 | 59.47904 | 23.78153 | 24531 ft | 437 kts | 228° |
| 2026-04-26 16:26 | 59.46430 | 23.75483 | 24789 ft | 433 kts | 234° |
| 2026-04-26 16:26 | 59.43639 | 23.69745 | 25292 ft | 436 kts | 235° |
| 2026-04-26 16:26 | 59.41541 | 23.65422 | 25676 ft | 439 kts | 235° |
| 2026-04-26 16:27 | 59.39427 | 23.61080 | 26040 ft | 442 kts | 235° |
| 2026-04-26 16:27 | 59.37297 | 23.56721 | 26402 ft | 445 kts | 234° |
| 2026-04-26 16:27 | 59.35142 | 23.52329 | 26752 ft | 448 kts | 234° |
| 2026-04-26 16:27 | 59.32976 | 23.47934 | 27104 ft | 450 kts | 234° |
| 2026-04-26 16:28 | 59.30789 | 23.43510 | 27460 ft | 453 kts | 234° |
| 2026-04-26 16:28 | 59.28584 | 23.39060 | 27789 ft | 456 kts | 234° |
| 2026-04-26 16:28 | 59.26359 | 23.34576 | 27894 ft | 458 kts | 234° |
| 2026-04-26 16:28 | 59.24141 | 23.30109 | 28182 ft | 460 kts | 234° |
| 2026-04-26 16:29 | 59.21905 | 23.25607 | 28462 ft | 463 kts | 236° |
| 2026-04-26 16:29 | 59.19641 | 23.21048 | 28763 ft | 466 kts | 236° |
| 2026-04-26 16:29 | 59.17366 | 23.16480 | 29072 ft | 469 kts | 236° |
| 2026-04-26 16:29 | 59.15112 | 23.11969 | 29387 ft | 471 kts | 236° |
| 2026-04-26 16:30 | 59.12814 | 23.07387 | 29697 ft | 474 kts | 236° |
| 2026-04-26 16:30 | 59.10504 | 23.02788 | 29977 ft | 476 kts | 235° |
| 2026-04-26 16:30 | 59.08183 | 22.98179 | 30205 ft | 478 kts | 235° |
| 2026-04-26 16:30 | 59.05851 | 22.93552 | 30455 ft | 480 kts | 235° |
| 2026-04-26 16:31 | 59.03507 | 22.88911 | 30675 ft | 482 kts | 234° |
| 2026-04-26 16:31 | 59.01150 | 22.84255 | 30828 ft | 483 kts | 236° |
| 2026-04-26 16:31 | 58.98796 | 22.79626 | 31173 ft | 481 kts | 236° |
| 2026-04-26 16:31 | 58.96437 | 22.74995 | 31497 ft | 481 kts | 236° |
| 2026-04-26 16:32 | 58.94089 | 22.70392 | 31818 ft | 480 kts | 235° |
| 2026-04-26 16:32 | 58.92535 | 22.67354 | 32029 ft | 480 kts | 235° |
| 2026-04-26 16:32 | 58.89394 | 22.61222 | 32452 ft | 479 kts | 235° |
| 2026-04-26 16:32 | 58.87052 | 22.56650 | 32764 ft | 479 kts | 234° |
| 2026-04-26 16:33 | 58.84714 | 22.52084 | 33072 ft | 478 kts | 234° |
| 2026-04-26 16:33 | 58.82387 | 22.47549 | 33392 ft | 478 kts | 234° |
| 2026-04-26 16:33 | 58.80021 | 22.42956 | 33704 ft | 477 kts | 234° |
| 2026-04-26 16:33 | 58.77717 | 22.38500 | 33994 ft | 476 kts | 234° |
| 2026-04-26 16:34 | 58.75343 | 22.33921 | 34289 ft | 475 kts | 233° |
| 2026-04-26 16:34 | 58.73038 | 22.29486 | 34553 ft | 474 kts | 233° |
| 2026-04-26 16:34 | 58.70710 | 22.25014 | 34810 ft | 473 kts | 233° |
| 2026-04-26 16:34 | 58.68378 | 22.20540 | 35080 ft | 472 kts | 233° |
| 2026-04-26 16:35 | 58.66071 | 22.16116 | 35325 ft | 472 kts | 233° |
| 2026-04-26 16:35 | 58.63721 | 22.11611 | 35571 ft | 471 kts | 232° |
| 2026-04-26 16:35 | 58.61400 | 22.07171 | 35813 ft | 471 kts | 232° |
| 2026-04-26 16:35 | 58.59080 | 22.02741 | 36038 ft | 470 kts | 232° |
| 2026-04-26 16:36 | 58.56760 | 21.98325 | 36226 ft | 470 kts | 232° |
| 2026-04-26 16:36 | 58.54447 | 21.93938 | 36475 ft | 468 kts | 232° |
| 2026-04-26 16:36 | 58.52132 | 21.89559 | 36710 ft | 467 kts | 231° |
| 2026-04-26 16:36 | 58.49819 | 21.85194 | 36921 ft | 466 kts | 231° |
| 2026-04-26 16:37 | 58.45224 | 21.76550 | 37020 ft | 466 kts | 231° |
| 2026-04-26 16:37 | 58.41354 | 21.69293 | 37029 ft | 465 kts | 231° |
| 2026-04-26 16:38 | 58.35971 | 21.59224 | 37026 ft | 465 kts | 231° |
| 2026-04-26 16:38 | 58.31336 | 21.50578 | 37050 ft | 466 kts | 231° |
| 2026-04-26 16:39 | 58.26720 | 21.42010 | 37038 ft | 466 kts | 231° |
| 2026-04-26 16:39 | 58.22072 | 21.33414 | 37054 ft | 466 kts | 231° |
| 2026-04-26 16:40 | 58.17417 | 21.24850 | 37058 ft | 466 kts | 231° |
| 2026-04-26 16:40 | 58.12749 | 21.16314 | 37067 ft | 466 kts | 231° |
| 2026-04-26 16:41 | 58.08082 | 21.07797 | 37042 ft | 466 kts | 231° |
| 2026-04-26 16:41 | 58.03419 | 20.99302 | 37070 ft | 466 kts | 231° |
| 2026-04-26 16:42 | 57.98747 | 20.90836 | 37078 ft | 466 kts | 231° |
| 2026-04-26 16:42 | 57.94067 | 20.82391 | 37079 ft | 465 kts | 231° |
| 2026-04-26 16:43 | 57.89390 | 20.73962 | 37057 ft | 465 kts | 231° |
| 2026-04-26 16:43 | 57.84714 | 20.65560 | 37073 ft | 466 kts | 231° |
| 2026-04-26 16:44 | 57.80000 | 20.57141 | 37084 ft | 466 kts | 231° |
| 2026-04-26 16:44 | 57.75301 | 20.48783 | 37104 ft | 466 kts | 231° |
| 2026-04-26 16:45 | 57.70608 | 20.40461 | 37108 ft | 466 kts | 231° |
| 2026-04-26 16:45 | 57.65882 | 20.32130 | 37057 ft | 466 kts | 231° |
| 2026-04-26 16:46 | 57.61144 | 20.23805 | 37117 ft | 468 kts | 231° |
| 2026-04-26 16:46 | 57.57195 | 20.16884 | 37125 ft | 468 kts | 231° |
| 2026-04-26 16:47 | 57.52452 | 20.08618 | 37399 ft | 466 kts | 231° |
| 2026-04-26 16:47 | 57.50086 | 20.04503 | 37597 ft | 466 kts | 231° |
| 2026-04-26 16:47 | 57.47715 | 20.00381 | 37769 ft | 466 kts | 231° |
| 2026-04-26 16:48 | 57.45352 | 19.96276 | 37930 ft | 466 kts | 231° |
| 2026-04-26 16:48 | 57.42981 | 19.92165 | 38070 ft | 466 kts | 230° |
| 2026-04-26 16:48 | 57.38234 | 19.83953 | 38122 ft | 467 kts | 230° |
| 2026-04-26 16:49 | 57.33475 | 19.75771 | 38124 ft | 467 kts | 230° |
| 2026-04-26 16:49 | 57.28719 | 19.67615 | 38124 ft | 467 kts | 230° |
| 2026-04-26 16:50 | 57.23954 | 19.59464 | 38126 ft | 467 kts | 230° |
| 2026-04-26 16:50 | 57.19186 | 19.51345 | 38130 ft | 467 kts | 230° |
| 2026-04-26 16:51 | 57.14402 | 19.43227 | 38139 ft | 468 kts | 230° |
| 2026-04-26 16:51 | 57.09602 | 19.35121 | 38143 ft | 468 kts | 230° |
| 2026-04-26 16:52 | 57.05614 | 19.28408 | 38151 ft | 468 kts | 230° |
| 2026-04-26 16:52 | 57.00021 | 19.19022 | 38154 ft | 468 kts | 230° |
| 2026-04-26 16:53 | 56.95233 | 19.11025 | 38141 ft | 462 kts | 230° |
| 2026-04-26 16:53 | 56.90449 | 19.03069 | 38169 ft | 461 kts | 230° |
| 2026-04-26 16:54 | 56.85701 | 18.95201 | 38174 ft | 461 kts | 230° |
| 2026-04-26 16:54 | 56.80985 | 18.87400 | 38196 ft | 460 kts | 230° |
| 2026-04-26 16:55 | 56.76234 | 18.79580 | 38158 ft | 460 kts | 230° |
| 2026-04-26 16:55 | 56.71486 | 18.71786 | 38168 ft | 459 kts | 230° |
| 2026-04-26 16:56 | 56.64375 | 18.60160 | 38180 ft | 458 kts | 230° |
| 2026-04-26 16:57 | 56.59628 | 18.52440 | 38187 ft | 458 kts | 230° |
| 2026-04-26 16:57 | 56.52512 | 18.40911 | 38161 ft | 457 kts | 230° |
| 2026-04-26 16:58 | 56.48528 | 18.34496 | 38180 ft | 457 kts | 230° |
| 2026-04-26 16:59 | 56.40632 | 18.21790 | 38191 ft | 457 kts | 230° |
| 2026-04-26 17:00 | 56.31101 | 18.06580 | 38166 ft | 457 kts | 229° |
| 2026-04-26 17:00 | 56.23967 | 17.95273 | 38206 ft | 454 kts | 229° |
| 2026-04-26 17:01 | 56.19226 | 17.87790 | 38213 ft | 453 kts | 229° |
| 2026-04-26 17:01 | 56.14485 | 17.80337 | 38212 ft | 453 kts | 229° |
| 2026-04-26 17:02 | 56.09745 | 17.72900 | 38171 ft | 452 kts | 229° |
| 2026-04-26 17:02 | 56.05019 | 17.65496 | 38205 ft | 451 kts | 229° |
| 2026-04-26 17:03 | 56.00298 | 17.58129 | 38210 ft | 450 kts | 229° |
| 2026-04-26 17:03 | 55.95726 | 17.51037 | 38218 ft | 450 kts | 229° |
| 2026-04-26 17:04 | 55.90878 | 17.43539 | 38212 ft | 450 kts | 229° |
| 2026-04-26 17:04 | 55.86103 | 17.36173 | 38185 ft | 450 kts | 229° |
| 2026-04-26 17:05 | 55.81369 | 17.28892 | 38207 ft | 449 kts | 229° |
| 2026-04-26 17:05 | 55.78847 | 17.25543 | 38210 ft | 458 kts | 218° |
| 2026-04-26 17:05 | 55.75975 | 17.22964 | 38212 ft | 468 kts | 208° |
| 2026-04-26 17:06 | 55.69748 | 17.19414 | 38212 ft | 473 kts | 204° |
| 2026-04-26 17:06 | 55.63505 | 17.15795 | 38172 ft | 467 kts | 211° |
| 2026-04-26 17:07 | 55.57680 | 17.10830 | 38209 ft | 462 kts | 213° |
| 2026-04-26 17:07 | 55.51898 | 17.05848 | 38230 ft | 462 kts | 213° |
| 2026-04-26 17:08 | 55.46118 | 17.00910 | 38236 ft | 462 kts | 213° |
| 2026-04-26 17:08 | 55.40372 | 16.96025 | 38232 ft | 461 kts | 213° |
| 2026-04-26 17:09 | 55.35537 | 16.91911 | 38221 ft | 460 kts | 213° |
| 2026-04-26 17:09 | 55.28797 | 16.86200 | 38241 ft | 460 kts | 213° |
| 2026-04-26 17:10 | 55.23023 | 16.81328 | 38255 ft | 460 kts | 213° |
| 2026-04-26 17:10 | 55.17287 | 16.76502 | 38255 ft | 459 kts | 213° |
| 2026-04-26 17:11 | 55.11537 | 16.71668 | 38236 ft | 459 kts | 213° |
| 2026-04-26 17:11 | 55.05773 | 16.66847 | 38247 ft | 458 kts | 212° |
| 2026-04-26 17:12 | 54.97131 | 16.59653 | 38257 ft | 458 kts | 212° |
| 2026-04-26 17:13 | 54.88380 | 16.52386 | 38265 ft | 459 kts | 212° |
| 2026-04-26 17:14 | 54.79838 | 16.45348 | 38259 ft | 458 kts | 212° |
| 2026-04-26 17:14 | 54.71190 | 16.38259 | 38275 ft | 458 kts | 212° |
| 2026-04-26 17:15 | 54.62551 | 16.31197 | 38274 ft | 457 kts | 212° |
| 2026-04-26 17:16 | 54.56845 | 16.26540 | 38292 ft | 457 kts | 212° |
| 2026-04-26 17:16 | 54.51059 | 16.21854 | 38297 ft | 457 kts | 212° |
| 2026-04-26 17:17 | 54.45335 | 16.17231 | 38305 ft | 456 kts | 212° |
| 2026-04-26 17:17 | 54.39592 | 16.12597 | 38288 ft | 456 kts | 212° |
| 2026-04-26 17:18 | 54.33829 | 16.07960 | 38299 ft | 456 kts | 212° |
| 2026-04-26 17:18 | 54.28087 | 16.03349 | 38312 ft | 456 kts | 211° |
| 2026-04-26 17:19 | 54.19461 | 15.96475 | 38280 ft | 455 kts | 211° |
| 2026-04-26 17:19 | 54.13708 | 15.91905 | 38303 ft | 454 kts | 211° |
| 2026-04-26 17:20 | 54.09823 | 15.88822 | 38320 ft | 454 kts | 211° |
| 2026-04-26 17:20 | 54.02270 | 15.82846 | 38310 ft | 453 kts | 211° |
| 2026-04-26 17:21 | 53.96540 | 15.78327 | 38293 ft | 453 kts | 211° |
| 2026-04-26 17:21 | 53.90822 | 15.73825 | 38310 ft | 452 kts | 211° |
| 2026-04-26 17:22 | 53.85129 | 15.69369 | 38318 ft | 452 kts | 211° |
| 2026-04-26 17:22 | 53.79417 | 15.64927 | 38319 ft | 451 kts | 211° |
| 2026-04-26 17:23 | 53.73712 | 15.60487 | 38318 ft | 451 kts | 211° |
| 2026-04-26 17:23 | 53.68005 | 15.56043 | 38303 ft | 450 kts | 211° |
| 2026-04-26 17:24 | 53.63300 | 15.52393 | 38309 ft | 450 kts | 211° |
| 2026-04-26 17:24 | 53.56786 | 15.47368 | 38316 ft | 450 kts | 211° |
| 2026-04-26 17:25 | 53.51997 | 15.43682 | 38314 ft | 450 kts | 211° |
| 2026-04-26 17:25 | 53.46346 | 15.39340 | 38290 ft | 450 kts | 211° |
| 2026-04-26 17:26 | 53.40645 | 15.34980 | 38311 ft | 449 kts | 211° |
| 2026-04-26 17:26 | 53.34930 | 15.30741 | 38318 ft | 450 kts | 209° |
| 2026-04-26 17:27 | 53.28676 | 15.26511 | 38318 ft | 451 kts | 207° |
| 2026-04-26 17:27 | 53.23254 | 15.22942 | 38304 ft | 451 kts | 207° |
| 2026-04-26 17:28 | 53.17218 | 15.18923 | 38325 ft | 451 kts | 208° |
| 2026-04-26 17:28 | 53.11618 | 15.15155 | 38326 ft | 451 kts | 208° |
| 2026-04-26 17:29 | 53.06770 | 15.11888 | 38325 ft | 451 kts | 208° |
| 2026-04-26 17:29 | 52.99968 | 15.07319 | 38304 ft | 451 kts | 208° |
| 2026-04-26 17:30 | 52.94132 | 15.03416 | 38316 ft | 450 kts | 208° |
| 2026-04-26 17:30 | 52.88350 | 14.99573 | 38324 ft | 450 kts | 208° |
| 2026-04-26 17:31 | 52.82522 | 14.95713 | 38323 ft | 450 kts | 207° |
| 2026-04-26 17:31 | 52.76710 | 14.91862 | 38303 ft | 449 kts | 207° |
| 2026-04-26 17:32 | 52.70915 | 14.88036 | 38323 ft | 448 kts | 207° |
| 2026-04-26 17:32 | 52.65119 | 14.84232 | 38324 ft | 448 kts | 207° |
| 2026-04-26 17:33 | 52.59359 | 14.80464 | 38323 ft | 448 kts | 207° |
| 2026-04-26 17:34 | 52.50675 | 14.74804 | 38314 ft | 447 kts | 207° |
| 2026-04-26 17:34 | 52.44895 | 14.71030 | 38317 ft | 447 kts | 207° |
| 2026-04-26 17:35 | 52.39081 | 14.67246 | 38312 ft | 447 kts | 207° |
| 2026-04-26 17:35 | 52.33330 | 14.63520 | 38283 ft | 447 kts | 207° |
| 2026-04-26 17:36 | 52.27551 | 14.59802 | 38308 ft | 447 kts | 207° |
| 2026-04-26 17:36 | 52.21766 | 14.56088 | 38310 ft | 446 kts | 207° |
| 2026-04-26 17:37 | 52.15992 | 14.52374 | 38315 ft | 446 kts | 207° |
| 2026-04-26 17:37 | 52.10212 | 14.48664 | 38288 ft | 446 kts | 207° |
| 2026-04-26 17:38 | 52.01549 | 14.43131 | 38309 ft | 445 kts | 207° |
| 2026-04-26 17:38 | 51.95785 | 14.39473 | 38312 ft | 445 kts | 206° |
| 2026-04-26 17:39 | 51.90030 | 14.35836 | 38311 ft | 444 kts | 206° |
| 2026-04-26 17:39 | 51.84273 | 14.32206 | 38295 ft | 444 kts | 206° |
| 2026-04-26 17:40 | 51.79490 | 14.29190 | 38303 ft | 444 kts | 206° |
| 2026-04-26 17:40 | 51.72765 | 14.24954 | 38307 ft | 444 kts | 206° |
| 2026-04-26 17:41 | 51.67010 | 14.21343 | 38309 ft | 444 kts | 206° |
| 2026-04-26 17:41 | 51.61251 | 14.17746 | 38302 ft | 444 kts | 206° |
| 2026-04-26 17:42 | 51.55498 | 14.14160 | 38308 ft | 443 kts | 206° |
| 2026-04-26 17:42 | 51.49742 | 14.10573 | 38314 ft | 443 kts | 206° |
| 2026-04-26 17:43 | 51.43986 | 14.06993 | 38315 ft | 443 kts | 206° |
| 2026-04-26 17:43 | 51.38264 | 14.03459 | 38304 ft | 443 kts | 206° |
| 2026-04-26 17:44 | 51.32506 | 13.99913 | 38313 ft | 443 kts | 206° |
| 2026-04-26 17:44 | 51.26751 | 13.96368 | 38317 ft | 444 kts | 206° |
| 2026-04-26 17:45 | 51.20984 | 13.92830 | 38304 ft | 443 kts | 205° |
| 2026-04-26 17:45 | 51.15229 | 13.89314 | 38316 ft | 443 kts | 205° |
| 2026-04-26 17:46 | 51.09474 | 13.85802 | 38302 ft | 443 kts | 205° |
| 2026-04-26 17:46 | 51.03716 | 13.82304 | 38312 ft | 443 kts | 205° |
| 2026-04-26 17:47 | 50.98921 | 13.79401 | 38293 ft | 443 kts | 205° |
| 2026-04-26 17:47 | 50.92190 | 13.75319 | 38313 ft | 443 kts | 205° |
| 2026-04-26 17:48 | 50.86432 | 13.71839 | 38307 ft | 443 kts | 205° |
| 2026-04-26 17:48 | 50.80669 | 13.68365 | 38310 ft | 443 kts | 205° |
| 2026-04-26 17:49 | 50.74904 | 13.64901 | 38296 ft | 443 kts | 205° |
| 2026-04-26 17:49 | 50.69004 | 13.62228 | 38302 ft | 449 kts | 193° |
| 2026-04-26 17:50 | 50.62850 | 13.60695 | 38299 ft | 449 kts | 193° |
| 2026-04-26 17:50 | 50.56680 | 13.59142 | 38304 ft | 449 kts | 193° |
| 2026-04-26 17:51 | 50.50503 | 13.57573 | 38296 ft | 449 kts | 193° |
| 2026-04-26 17:51 | 50.44371 | 13.56029 | 38306 ft | 448 kts | 193° |
| 2026-04-26 17:52 | 50.38207 | 13.54478 | 38310 ft | 448 kts | 193° |
| 2026-04-26 17:52 | 50.32040 | 13.52929 | 38307 ft | 448 kts | 193° |
| 2026-04-26 17:53 | 50.25880 | 13.51389 | 38303 ft | 448 kts | 193° |
| 2026-04-26 17:54 | 50.16627 | 13.49098 | 38296 ft | 448 kts | 193° |
| 2026-04-26 17:54 | 50.10462 | 13.47569 | 38296 ft | 448 kts | 193° |
| 2026-04-26 17:55 | 50.04301 | 13.46042 | 38294 ft | 448 kts | 193° |
| 2026-04-26 17:55 | 49.98141 | 13.44524 | 38298 ft | 447 kts | 193° |
| 2026-04-26 17:56 | 49.91998 | 13.43014 | 38287 ft | 447 kts | 193° |
| 2026-04-26 17:57 | 49.79695 | 13.40005 | 38273 ft | 446 kts | 193° |
| 2026-04-26 17:57 | 49.73600 | 13.38523 | 38272 ft | 446 kts | 193° |
| 2026-04-26 17:58 | 49.61723 | 13.34084 | 38252 ft | 433 kts | 212° |
| 2026-04-26 17:59 | 49.53877 | 13.27346 | 38267 ft | 434 kts | 213° |
| 2026-04-26 17:59 | 49.49469 | 13.23543 | 38274 ft | 434 kts | 213° |
| 2026-04-26 18:00 | 49.43334 | 13.18294 | 38259 ft | 434 kts | 213° |
| 2026-04-26 18:00 | 49.38935 | 13.14552 | 38268 ft | 434 kts | 212° |
| 2026-04-26 18:01 | 49.32764 | 13.09305 | 38272 ft | 434 kts | 213° |
| 2026-04-26 18:01 | 49.28368 | 13.05565 | 38270 ft | 434 kts | 212° |
| 2026-04-26 18:02 | 49.23976 | 13.01836 | 38271 ft | 434 kts | 212° |
| 2026-04-26 18:02 | 49.17814 | 12.96614 | 38253 ft | 434 kts | 212° |
| 2026-04-26 18:03 | 49.12536 | 12.92165 | 38255 ft | 434 kts | 212° |
| 2026-04-26 18:03 | 49.07235 | 12.87724 | 38256 ft | 434 kts | 212° |
| 2026-04-26 18:04 | 49.01945 | 12.83297 | 38231 ft | 434 kts | 212° |
| 2026-04-26 18:05 | 48.94024 | 12.76664 | 38232 ft | 434 kts | 212° |
| 2026-04-26 18:05 | 48.88713 | 12.72239 | 38236 ft | 434 kts | 212° |
| 2026-04-26 18:06 | 48.83402 | 12.67820 | 38241 ft | 434 kts | 212° |
| 2026-04-26 18:06 | 48.78101 | 12.63421 | 38236 ft | 435 kts | 212° |
| 2026-04-26 18:07 | 48.72784 | 12.59025 | 38239 ft | 435 kts | 212° |
| 2026-04-26 18:07 | 48.67473 | 12.54631 | 38240 ft | 435 kts | 212° |
| 2026-04-26 18:08 | 48.62152 | 12.50244 | 38221 ft | 435 kts | 212° |
| 2026-04-26 18:08 | 48.56852 | 12.45896 | 38229 ft | 434 kts | 212° |
| 2026-04-26 18:09 | 48.51537 | 12.41546 | 38234 ft | 434 kts | 212° |
| 2026-04-26 18:09 | 48.46216 | 12.37195 | 38238 ft | 434 kts | 212° |
| 2026-04-26 18:10 | 48.40916 | 12.32854 | 38228 ft | 434 kts | 212° |
| 2026-04-26 18:10 | 48.35614 | 12.28539 | 38234 ft | 433 kts | 212° |
| 2026-04-26 18:11 | 48.30358 | 12.24280 | 38235 ft | 433 kts | 212° |
| 2026-04-26 18:11 | 48.25013 | 12.19952 | 38230 ft | 433 kts | 212° |
| 2026-04-26 18:12 | 48.19711 | 12.15672 | 38231 ft | 433 kts | 212° |
| 2026-04-26 18:12 | 48.14201 | 12.11913 | 38225 ft | 438 kts | 199° |
| 2026-04-26 18:13 | 48.08351 | 12.09434 | 38224 ft | 439 kts | 199° |
| 2026-04-26 18:13 | 48.02448 | 12.06936 | 38224 ft | 439 kts | 199° |
| 2026-04-26 18:14 | 47.96572 | 12.04444 | 38206 ft | 439 kts | 199° |
| 2026-04-26 18:14 | 47.90686 | 12.01947 | 38206 ft | 439 kts | 199° |
| 2026-04-26 18:15 | 47.84837 | 11.99471 | 38200 ft | 439 kts | 199° |
| 2026-04-26 18:15 | 47.78947 | 11.96982 | 38376 ft | 439 kts | 199° |
| 2026-04-26 18:15 | 47.76010 | 11.95749 | 38592 ft | 438 kts | 199° |
| 2026-04-26 18:16 | 47.73072 | 11.94520 | 38788 ft | 438 kts | 199° |
| 2026-04-26 18:16 | 47.67239 | 11.91875 | 39084 ft | 437 kts | 201° |
| 2026-04-26 18:16 | 47.64345 | 11.90470 | 39166 ft | 438 kts | 201° |
| 2026-04-26 18:17 | 47.58534 | 11.87628 | 39180 ft | 438 kts | 201° |
| 2026-04-26 18:17 | 47.52779 | 11.84874 | 39178 ft | 438 kts | 201° |
| 2026-04-26 18:18 | 47.46973 | 11.82144 | 39176 ft | 438 kts | 201° |
| 2026-04-26 18:18 | 47.41163 | 11.79425 | 39169 ft | 438 kts | 201° |
| 2026-04-26 18:19 | 47.35321 | 11.76848 | 39158 ft | 440 kts | 194° |
| 2026-04-26 18:19 | 47.29247 | 11.75400 | 39166 ft | 442 kts | 192° |
| 2026-04-26 18:20 | 47.23166 | 11.73999 | 39168 ft | 442 kts | 192° |
| 2026-04-26 18:20 | 47.18114 | 11.72827 | 39161 ft | 443 kts | 192° |
| 2026-04-26 18:21 | 47.10998 | 11.71174 | 39163 ft | 443 kts | 192° |
| 2026-04-26 18:21 | 47.04917 | 11.69772 | 39161 ft | 443 kts | 192° |
| 2026-04-26 18:22 | 46.99060 | 11.67275 | 39138 ft | 435 kts | 208° |
| 2026-04-26 18:22 | 46.93598 | 11.63603 | 39132 ft | 435 kts | 208° |
| 2026-04-26 18:23 | 46.88098 | 11.59911 | 39133 ft | 434 kts | 208° |
| 2026-04-26 18:23 | 46.82603 | 11.56230 | 39128 ft | 435 kts | 207° |
| 2026-04-26 18:24 | 46.77101 | 11.52575 | 39108 ft | 434 kts | 207° |
| 2026-04-26 18:24 | 46.71584 | 11.48915 | 38924 ft | 441 kts | 207° |
| 2026-04-26 18:25 | 46.68897 | 11.46767 | 38663 ft | 438 kts | 222° |
| 2026-04-26 18:25 | 46.66641 | 11.43797 | 38386 ft | 436 kts | 227° |
| 2026-04-26 18:25 | 46.64549 | 11.40631 | 38088 ft | 433 kts | 230° |
| 2026-04-26 18:25 | 46.62550 | 11.37354 | 37799 ft | 431 kts | 232° |
| 2026-04-26 18:26 | 46.60607 | 11.34055 | 37505 ft | 428 kts | 232° |
| 2026-04-26 18:26 | 46.58581 | 11.30624 | 37207 ft | 426 kts | 231° |
| 2026-04-26 18:26 | 46.56720 | 11.27543 | 36947 ft | 424 kts | 231° |
| 2026-04-26 18:26 | 46.54751 | 11.24370 | 36769 ft | 421 kts | 230° |
| 2026-04-26 18:27 | 46.52781 | 11.21250 | 36496 ft | 418 kts | 230° |
| 2026-04-26 18:27 | 46.50805 | 11.18153 | 36275 ft | 417 kts | 230° |
| 2026-04-26 18:27 | 46.48835 | 11.15076 | 36024 ft | 413 kts | 230° |
| 2026-04-26 18:27 | 46.46894 | 11.12037 | 35761 ft | 411 kts | 230° |
| 2026-04-26 18:28 | 46.44951 | 11.08988 | 35500 ft | 408 kts | 230° |
| 2026-04-26 18:28 | 46.43031 | 11.05972 | 35255 ft | 406 kts | 230° |
| 2026-04-26 18:28 | 46.41151 | 11.03011 | 35011 ft | 403 kts | 230° |
| 2026-04-26 18:28 | 46.39234 | 10.99988 | 34861 ft | 401 kts | 230° |
| 2026-04-26 18:29 | 46.37351 | 10.97027 | 34617 ft | 398 kts | 230° |
| 2026-04-26 18:29 | 46.35510 | 10.94133 | 34388 ft | 396 kts | 230° |
| 2026-04-26 18:29 | 46.33635 | 10.91193 | 34115 ft | 394 kts | 230° |
| 2026-04-26 18:29 | 46.31779 | 10.88285 | 33831 ft | 392 kts | 230° |
| 2026-04-26 18:30 | 46.30146 | 10.85181 | 33535 ft | 385 kts | 244° |
| 2026-04-26 18:30 | 46.28925 | 10.81746 | 33264 ft | 383 kts | 245° |
| 2026-04-26 18:30 | 46.27731 | 10.78312 | 32995 ft | 382 kts | 245° |
| 2026-04-26 18:30 | 46.26547 | 10.74881 | 32720 ft | 380 kts | 245° |
| 2026-04-26 18:31 | 46.25368 | 10.71461 | 32464 ft | 379 kts | 245° |
| 2026-04-26 18:31 | 46.24193 | 10.68070 | 32189 ft | 377 kts | 245° |
| 2026-04-26 18:31 | 46.23020 | 10.64689 | 31923 ft | 376 kts | 245° |
| 2026-04-26 18:31 | 46.21842 | 10.61302 | 31662 ft | 375 kts | 245° |
| 2026-04-26 18:32 | 46.20666 | 10.57942 | 31405 ft | 374 kts | 245° |
| 2026-04-26 18:32 | 46.19495 | 10.54607 | 31153 ft | 373 kts | 245° |
| 2026-04-26 18:32 | 46.18319 | 10.51269 | 30892 ft | 371 kts | 245° |
| 2026-04-26 18:32 | 46.17150 | 10.47956 | 30672 ft | 370 kts | 245° |
| 2026-04-26 18:33 | 46.16001 | 10.44694 | 30417 ft | 369 kts | 245° |
| 2026-04-26 18:33 | 46.14827 | 10.41358 | 30150 ft | 368 kts | 245° |
| 2026-04-26 18:33 | 46.13672 | 10.38076 | 29860 ft | 366 kts | 245° |
| 2026-04-26 18:33 | 46.12535 | 10.34852 | 29579 ft | 365 kts | 245° |
| 2026-04-26 18:34 | 46.11386 | 10.31603 | 29299 ft | 363 kts | 245° |
| 2026-04-26 18:34 | 46.10241 | 10.28373 | 29001 ft | 362 kts | 245° |
| 2026-04-26 18:34 | 46.09100 | 10.25152 | 28724 ft | 360 kts | 245° |
| 2026-04-26 18:34 | 46.07964 | 10.21939 | 28452 ft | 359 kts | 245° |
| 2026-04-26 18:35 | 46.06832 | 10.18748 | 28174 ft | 358 kts | 245° |
| 2026-04-26 18:35 | 46.05693 | 10.15545 | 27908 ft | 356 kts | 244° |
| 2026-04-26 18:35 | 46.04564 | 10.12379 | 27643 ft | 355 kts | 244° |
| 2026-04-26 18:35 | 46.03448 | 10.09212 | 27363 ft | 354 kts | 245° |
| 2026-04-26 18:36 | 46.02370 | 10.06044 | 27096 ft | 352 kts | 246° |
| 2026-04-26 18:36 | 46.01313 | 10.02873 | 26864 ft | 351 kts | 246° |
| 2026-04-26 18:36 | 46.00264 | 9.99702 | 26594 ft | 350 kts | 246° |
| 2026-04-26 18:36 | 45.99218 | 9.96551 | 26336 ft | 349 kts | 246° |
| 2026-04-26 18:37 | 45.98168 | 9.93405 | 26087 ft | 348 kts | 246° |
| 2026-04-26 18:37 | 45.97127 | 9.90306 | 25829 ft | 349 kts | 246° |
| 2026-04-26 18:37 | 45.96045 | 9.87099 | 25580 ft | 362 kts | 246° |
| 2026-04-26 18:37 | 45.94951 | 9.83867 | 25310 ft | 354 kts | 246° |
| 2026-04-26 18:38 | 45.93883 | 9.80718 | 25074 ft | 348 kts | 246° |
| 2026-04-26 18:38 | 45.92824 | 9.77598 | 24580 ft | 349 kts | 246° |
| 2026-04-26 18:38 | 45.91761 | 9.74471 | 24163 ft | 346 kts | 246° |
| 2026-04-26 18:38 | 45.90705 | 9.71373 | 23755 ft | 344 kts | 246° |
| 2026-04-26 18:39 | 45.89666 | 9.68327 | 23456 ft | 338 kts | 246° |
| 2026-04-26 18:39 | 45.88971 | 9.66288 | 23094 ft | 341 kts | 246° |
| 2026-04-26 18:39 | 45.87931 | 9.63235 | 22599 ft | 340 kts | 246° |
| 2026-04-26 18:39 | 45.86891 | 9.60190 | 22118 ft | 339 kts | 245° |
| 2026-04-26 18:40 | 45.85851 | 9.57158 | 21642 ft | 338 kts | 245° |
| 2026-04-26 18:40 | 45.84816 | 9.54139 | 21176 ft | 337 kts | 245° |
| 2026-04-26 18:40 | 45.83742 | 9.51002 | 20705 ft | 336 kts | 245° |
| 2026-04-26 18:40 | 45.82757 | 9.48125 | 20266 ft | 335 kts | 246° |
| 2026-04-26 18:41 | 45.81723 | 9.45116 | 19811 ft | 336 kts | 245° |
| 2026-04-26 18:41 | 45.80697 | 9.42137 | 19379 ft | 336 kts | 245° |
| 2026-04-26 18:41 | 45.79662 | 9.39137 | 18950 ft | 335 kts | 245° |
| 2026-04-26 18:41 | 45.78627 | 9.36143 | 18529 ft | 335 kts | 245° |
| 2026-04-26 18:42 | 45.77590 | 9.33144 | 18059 ft | 336 kts | 245° |
| 2026-04-26 18:42 | 45.76553 | 9.30151 | 17579 ft | 336 kts | 245° |
| 2026-04-26 18:42 | 45.75516 | 9.27151 | 17097 ft | 336 kts | 245° |
| 2026-04-26 18:42 | 45.74482 | 9.24156 | 16636 ft | 336 kts | 245° |
| 2026-04-26 18:43 | 45.73448 | 9.21161 | 16181 ft | 336 kts | 245° |
| 2026-04-26 18:43 | 45.72413 | 9.18171 | 15728 ft | 336 kts | 245° |
| 2026-04-26 18:43 | 45.71371 | 9.15172 | 15287 ft | 336 kts | 245° |
| 2026-04-26 18:43 | 45.70328 | 9.12179 | 14847 ft | 335 kts | 244° |
| 2026-04-26 18:44 | 45.69289 | 9.09201 | 14421 ft | 335 kts | 244° |
| 2026-04-26 18:44 | 45.68245 | 9.06216 | 13992 ft | 335 kts | 244° |
| 2026-04-26 18:44 | 45.67205 | 9.03242 | 13535 ft | 334 kts | 244° |
| 2026-04-26 18:44 | 45.66175 | 9.00291 | 13054 ft | 328 kts | 244° |
| 2026-04-26 18:45 | 45.65174 | 8.97426 | 12492 ft | 318 kts | 244° |
| 2026-04-26 18:45 | 45.64181 | 8.94596 | 11730 ft | 317 kts | 244° |
| 2026-04-26 18:45 | 45.63178 | 8.91822 | 11062 ft | 312 kts | 239° |
| 2026-04-26 18:45 | 45.61704 | 8.89604 | 10410 ft | 309 kts | 212° |
| 2026-04-26 18:46 | 45.59718 | 8.88568 | 9751 ft | 305 kts | 185° |
| 2026-04-26 18:46 | 45.57633 | 8.88808 | 9053 ft | 299 kts | 169° |
| 2026-04-26 18:46 | 45.55603 | 8.89366 | 8364 ft | 295 kts | 169° |
| 2026-04-26 18:46 | 45.53598 | 8.89918 | 7684 ft | 291 kts | 169° |
| 2026-04-26 18:47 | 45.51624 | 8.90460 | 7035 ft | 287 kts | 169° |
| 2026-04-26 18:47 | 45.49674 | 8.90993 | 6380 ft | 283 kts | 169° |
| 2026-04-26 18:47 | 45.47756 | 8.91517 | 5699 ft | 278 kts | 169° |
| 2026-04-26 18:47 | 45.45888 | 8.92026 | 5035 ft | 274 kts | 169° |
| 2026-04-26 18:48 | 45.44032 | 8.92524 | 4359 ft | 270 kts | 172° |
| 2026-04-26 18:48 | 45.42213 | 8.92429 | 4008 ft | 253 kts | 195° |
| 2026-04-26 18:48 | 45.40651 | 8.91438 | 4009 ft | 247 kts | 216° |
| 2026-04-26 18:48 | 45.39461 | 8.89693 | 4008 ft | 246 kts | 239° |
| 2026-04-26 18:49 | 45.38802 | 8.87544 | 4006 ft | 229 kts | 251° |
| 2026-04-26 18:49 | 45.38410 | 8.85436 | 4004 ft | 211 kts | 266° |
| 2026-04-26 18:49 | 45.38514 | 8.83405 | 4011 ft | 204 kts | 285° |
| 2026-04-26 18:49 | 45.39080 | 8.81584 | 4011 ft | 203 kts | 305° |
| 2026-04-26 18:50 | 45.40046 | 8.80131 | 4011 ft | 203 kts | 325° |
| 2026-04-26 18:50 | 45.41294 | 8.79222 | 4011 ft | 203 kts | 344° |
| 2026-04-26 18:50 | 45.42683 | 8.78873 | 4014 ft | 206 kts | 352° |
| 2026-04-26 18:50 | 45.44217 | 8.78518 | 3975 ft | 230 kts | 349° |
| 2026-04-26 18:51 | 45.45787 | 8.78098 | 3759 ft | 228 kts | 349° |
| 2026-04-26 18:51 | 45.47338 | 8.77670 | 3480 ft | 226 kts | 348° |
| 2026-04-26 18:51 | 45.48862 | 8.77251 | 3180 ft | 218 kts | 349° |
| 2026-04-26 18:51 | 45.50300 | 8.76856 | 2905 ft | 209 kts | 349° |
| 2026-04-26 18:52 | 45.51700 | 8.76471 | 2654 ft | 200 kts | 349° |
| 2026-04-26 18:52 | 45.53034 | 8.76104 | 2405 ft | 191 kts | 349° |
| 2026-04-26 18:52 | 45.54313 | 8.75751 | 2146 ft | 185 kts | 349° |
| 2026-04-26 18:52 | 45.55582 | 8.75402 | 1927 ft | 189 kts | 349° |
| 2026-04-26 18:53 | 45.56878 | 8.75045 | 1661 ft | 189 kts | 348° |
| 2026-04-26 18:53 | 45.58115 | 8.74737 | 1349 ft | 173 kts | 351° |
| 2026-04-26 18:53 | 45.59236 | 8.74388 | 1156 ft | 154 kts | 349° |
| 2026-04-26 18:53 | 45.60233 | 8.74135 | 975 ft | 140 kts | 349° |
| 2026-04-26 18:54 | 45.61143 | 8.73871 | 815 ft | 128 kts | 352° |
| 2026-04-26 18:54 | 45.62062 | 8.73621 | 718 ft | 131 kts | 349° |
| 2026-04-26 18:54 | 45.62808 | 8.73418 | 729 ft | 85 kts | 350° |
| 2026-04-26 18:54 | 45.63217 | 8.73300 | 737 ft | 35 kts | 349° |
| 2026-04-26 18:55 | 45.63427 | 8.73242 | 742 ft | 29 kts | 348° |
| 2026-04-26 18:55 | 45.63598 | 8.73177 | 746 ft | 21 kts | 340° |
| 2026-04-26 18:55 | 45.63722 | 8.73070 | 749 ft | 21 kts | 320° |
| 2026-04-26 18:55 | 45.63790 | 8.72978 | 752 ft | 12 kts | 308° |
| 2026-04-26 18:56 | 45.63848 | 8.72851 | 752 ft | 17 kts | 304° |
| 2026-04-26 18:56 | 45.63912 | 8.72716 | 755 ft | 16 kts | 304° |
| 2026-04-26 18:56 | 45.63960 | 8.72579 | 757 ft | 16 kts | 276° |
| 2026-04-26 18:56 | 45.63943 | 8.72427 | 756 ft | 15 kts | 257° |
| 2026-04-26 18:57 | 45.63924 | 8.72294 | 758 ft | 14 kts | 260° |
| 2026-04-26 18:57 | 45.63919 | 8.72170 | 758 ft | 22 kts | 270° |
| 2026-04-26 18:57 | 45.63896 | 8.71891 | 759 ft | 17 kts | 250° |
| 2026-04-26 18:57 | 45.63800 | 8.71823 | 757 ft | 18 kts | 174° |
| 2026-04-26 18:58 | 45.63667 | 8.71863 | 750 ft | 21 kts | 168° |
| 2026-04-26 18:58 | 45.63515 | 8.71908 | 750 ft | 24 kts | 169° |
| 2026-04-26 18:58 | 45.63434 | 8.71872 | 747 ft | 9 kts | 233° |
| 2026-04-26 18:58 | 45.63389 | 8.71826 | 749 ft | 12 kts | 171° |
| 2026-04-26 18:59 | 45.63308 | 8.71832 | 748 ft | 11 kts | 216° |
| 2026-04-26 18:59 | 45.63287 | 8.71733 | 746 ft | 10 kts | 258° |
| 2026-04-26 18:59 | 45.63259 | 8.71664 | 747 ft | 8 kts | 191° |
| 2026-04-26 18:59 | 45.63199 | 8.71679 | 746 ft | 10 kts | 165° |
| 2026-04-26 19:00 | 45.63142 | 8.71684 | 742 ft | 7 kts | 205° |
| 2026-04-26 19:00 | 45.63130 | 8.71613 | 743 ft | 8 kts | 258° |
| 2026-04-26 19:00 | 45.63124 | 8.71575 | 745 ft | 0 kts | 258° |